Time,TemperatureF,DewpointF,PressureIn,WindDirection,WindDirectionDegrees,WindSpeedMPH,WindSpeedGustMPH,Humidity,HourlyPrecipIn,Conditions,Clouds,dailyrainin,SoftwareType,DateUTC
2013-09-30 00:01:00,49.9,48.8,30.06,NNE,28,0.0,0.0,96,0.00,,,0.00,WeatherCatV1.21B27,2013-09-30 04:01:00,
2013-09-30 00:06:00,50.0,48.6,30.06,NNE,28,0.0,0.0,95,0.00,,,0.00,WeatherCatV1.21B27,2013-09-30 04:06:00,
2013-09-30 00:11:00,50.1,48.7,30.06,NNE,28,0.0,0.0,95,0.00,,,0.00,WeatherCatV1.21B27,2013-09-30 04:11:00,
2013-09-30 00:16:00,50.2,49.1,30.06,NNE,28,0.0,0.0,96,0.00,,,0.00,WeatherCatV1.21B27,2013-09-30 04:16:00,
2013-09-30 00:21:00,50.3,49.2,30.06,NNE,28,0.0,0.0,96,0.00,,,0.00,WeatherCatV1.21B27,2013-09-30 04:21:00,
2013-09-30 00:26:00,50.4,49.3,30.06,NNE,28,0.0,0.0,96,0.00,,,0.00,WeatherCatV1.21B27,2013-09-30 04:26:00,
2013-09-30 00:31:00,50.4,49.3,30.06,NNE,28,0.0,0.0,96,0.00,,,0.00,WeatherCatV1.21B27,2013-09-30 04:31:00,
2013-09-30 00:36:00,50.5,49.1,30.06,NNE,28,0.0,0.0,95,0.00,,,0.00,WeatherCatV1.21B27,2013-09-30 04:36:00,
2013-09-30 00:41:00,50.6,49.2,30.06,NNE,28,0.0,0.0,95,0.00,,,0.00,WeatherCatV1.21B27,2013-09-30 04:41:00,
2013-09-30 00:46:00,50.7,49.3,30.06,NNE,28,0.0,0.0,95,0.00,,,0.00,WeatherCatV1.21B27,2013-09-30 04:46:00,
2013-09-30 00:51:00,50.8,49.4,30.06,WSW,250,0.0,3.0,95,0.00,,,0.00,WeatherCatV1.21B27,2013-09-30 04:51:00,
2013-09-30 00:56:00,51.0,49.6,30.06,WSW,250,0.0,0.0,95,0.00,,,0.00,WeatherCatV1.21B27,2013-09-30 04:56:00,
2013-09-30 01:01:00,51.2,49.8,30.06,WSW,250,0.0,0.0,95,0.00,,,0.00,WeatherCatV1.21B27,2013-09-30 05:01:00,
2013-09-30 01:06:00,51.3,49.9,30.06,WSW,250,0.0,0.0,95,0.00,,,0.00,WeatherCatV1.21B27,2013-09-30 05:06:00,
2013-09-30 01:11:00,51.4,50.0,30.06,WSW,250,0.0,0.0,95,0.00,,,0.00,WeatherCatV1.21B27,2013-09-30 05:11:00,
2013-09-30 01:16:00,51.5,50.1,30.06,WSW,250,0.0,0.0,95,0.00,,,0.00,WeatherCatV1.21B27,2013-09-30 05:16:00,
2013-09-30 01:21:00,51.6,50.2,30.05,WSW,250,0.0,0.0,95,0.00,,,0.00,WeatherCatV1.21B27,2013-09-30 05:21:00,
2013-09-30 01:26:00,51.7,50.3,30.05,WSW,250,0.0,0.0,95,0.00,,,0.00,WeatherCatV1.21B27,2013-09-30 05:26:00,
2013-09-30 01:31:00,51.9,50.5,30.05,WSW,250,0.0,0.0,95,0.00,,,0.00,WeatherCatV1.21B27,2013-09-30 05:31:00,
2013-09-30 01:36:00,52.1,50.7,30.05,WSW,250,0.0,0.0,95,0.00,,,0.00,WeatherCatV1.21B27,2013-09-30 05:36:00,
2013-09-30 01:41:00,52.2,50.8,30.05,WSW,250,0.0,0.0,95,0.00,,,0.00,WeatherCatV1.21B27,2013-09-30 05:41:00,
2013-09-30 01:46:00,52.3,50.9,30.05,WSW,250,0.0,0.0,95,0.00,,,0.00,WeatherCatV1.21B27,2013-09-30 05:46:00,
2013-09-30 01:51:00,52.4,51.0,30.05,WSW,250,0.0,0.0,95,0.00,,,0.00,WeatherCatV1.21B27,2013-09-30 05:51:00,
2013-09-30 01:56:00,52.6,51.2,30.05,WSW,250,0.0,0.0,95,0.00,,,0.00,WeatherCatV1.21B27,2013-09-30 05:56:00,
2013-09-30 02:01:00,52.6,51.2,30.05,WSW,250,0.0,0.0,95,0.00,,,0.00,WeatherCatV1.21B27,2013-09-30 06:01:00,
2013-09-30 02:06:00,52.8,51.4,30.05,WSW,250,0.0,0.0,95,0.00,,,0.00,WeatherCatV1.21B27,2013-09-30 06:06:00,
2013-09-30 02:11:00,52.9,51.5,30.05,WSW,250,0.0,0.0,95,0.00,,,0.00,WeatherCatV1.21B27,2013-09-30 06:11:00,
2013-09-30 02:16:00,53.0,51.6,30.04,WSW,250,0.0,0.0,95,0.00,,,0.00,WeatherCatV1.21B27,2013-09-30 06:16:00,
2013-09-30 02:21:00,53.0,51.6,30.04,WSW,250,0.0,0.0,95,0.00,,,0.00,WeatherCatV1.21B27,2013-09-30 06:21:00,
2013-09-30 02:26:00,53.2,51.8,30.04,WSW,250,0.0,0.0,95,0.00,,,0.00,WeatherCatV1.21B27,2013-09-30 06:26:00,
2013-09-30 02:31:00,53.2,51.8,30.04,WSW,250,0.0,0.0,95,0.00,,,0.00,WeatherCatV1.21B27,2013-09-30 06:31:00,
2013-09-30 02:36:00,53.3,51.9,30.04,WSW,250,0.0,0.0,95,0.00,,,0.00,WeatherCatV1.21B27,2013-09-30 06:36:00,
2013-09-30 02:41:00,53.5,52.1,30.03,WSW,250,0.0,0.0,95,0.00,,,0.00,WeatherCatV1.21B27,2013-09-30 06:41:00,
2013-09-30 02:46:00,53.6,52.2,30.03,WSW,250,0.0,0.0,95,0.00,,,0.00,WeatherCatV1.21B27,2013-09-30 06:46:00,
2013-09-30 02:51:00,53.6,52.2,30.03,WSW,250,0.0,0.0,95,0.00,,,0.00,WeatherCatV1.21B27,2013-09-30 06:51:00,
2013-09-30 02:56:00,53.7,52.3,30.03,WSW,250,0.0,0.0,95,0.00,,,0.00,WeatherCatV1.21B27,2013-09-30 06:56:00,
2013-09-30 03:01:00,53.7,52.3,30.03,WSW,250,0.0,0.0,95,0.00,,,0.00,WeatherCatV1.21B27,2013-09-30 07:01:00,
2013-09-30 03:06:00,53.6,51.9,30.03,WSW,250,0.0,0.0,94,0.00,,,0.00,WeatherCatV1.21B27,2013-09-30 07:06:00,
2013-09-30 03:11:00,53.5,51.8,30.03,WSW,250,0.0,0.0,94,0.00,,,0.00,WeatherCatV1.21B27,2013-09-30 07:11:00,
2013-09-30 03:16:00,53.4,51.7,30.03,WSW,250,0.0,0.0,94,0.00,,,0.00,WeatherCatV1.21B27,2013-09-30 07:16:00,
2013-09-30 03:21:00,53.3,51.9,30.03,WSW,250,0.0,0.0,95,0.00,,,0.00,WeatherCatV1.21B27,2013-09-30 07:21:00,
2013-09-30 03:26:00,53.3,51.9,30.03,WSW,250,0.0,0.0,95,0.00,,,0.00,WeatherCatV1.21B27,2013-09-30 07:26:00,
2013-09-30 03:31:00,53.3,51.9,30.03,WSW,250,0.0,0.0,95,0.00,,,0.00,WeatherCatV1.21B27,2013-09-30 07:31:00,
2013-09-30 03:36:00,53.2,51.8,30.04,WSW,250,0.0,0.0,95,0.00,,,0.00,WeatherCatV1.21B27,2013-09-30 07:36:00,
2013-09-30 03:41:00,53.2,51.8,30.04,WSW,250,0.0,0.0,95,0.00,,,0.00,WeatherCatV1.21B27,2013-09-30 07:41:00,
2013-09-30 03:46:00,53.2,51.8,30.04,WSW,250,0.0,0.0,95,0.00,,,0.00,WeatherCatV1.21B27,2013-09-30 07:46:00,
2013-09-30 03:51:00,53.1,51.7,30.04,WSW,250,0.0,0.0,95,0.00,,,0.00,WeatherCatV1.21B27,2013-09-30 07:51:00,
2013-09-30 03:56:00,53.1,51.7,30.04,WSW,250,0.0,0.0,95,0.00,,,0.00,WeatherCatV1.21B27,2013-09-30 07:56:00,
2013-09-30 04:01:00,53.1,51.7,30.04,WSW,250,0.0,0.0,95,0.00,,,0.00,WeatherCatV1.21B27,2013-09-30 08:01:00,
2013-09-30 04:06:00,53.1,51.7,30.04,WSW,250,0.0,0.0,95,0.00,,,0.00,WeatherCatV1.21B27,2013-09-30 08:06:00,
2013-09-30 04:11:00,53.2,51.8,30.04,WSW,250,0.0,0.0,95,0.00,,,0.00,WeatherCatV1.21B27,2013-09-30 08:11:00,
2013-09-30 04:16:00,53.3,51.9,30.04,WSW,250,0.0,0.0,95,0.00,,,0.00,WeatherCatV1.21B27,2013-09-30 08:16:00,
2013-09-30 04:21:00,53.3,51.9,30.04,WSW,250,0.0,0.0,95,0.00,,,0.00,WeatherCatV1.21B27,2013-09-30 08:21:00,
2013-09-30 04:26:00,53.3,51.9,30.04,WSW,250,0.0,0.0,95,0.00,,,0.00,WeatherCatV1.21B27,2013-09-30 08:26:00,
2013-09-30 04:31:00,53.3,51.9,30.03,WSW,250,0.0,0.0,95,0.00,,,0.00,WeatherCatV1.21B27,2013-09-30 08:31:00,
2013-09-30 04:36:00,53.4,52.0,30.03,WSW,250,0.0,0.0,95,0.00,,,0.00,WeatherCatV1.21B27,2013-09-30 08:36:00,
2013-09-30 04:41:00,53.5,52.1,30.03,WSW,250,0.0,0.0,95,0.00,,,0.00,WeatherCatV1.21B27,2013-09-30 08:41:00,
2013-09-30 04:46:00,53.5,52.1,30.03,WSW,250,0.0,0.0,95,0.00,,,0.00,WeatherCatV1.21B27,2013-09-30 08:46:00,
2013-09-30 04:51:00,53.4,52.0,30.03,WSW,250,0.0,0.0,95,0.00,,,0.00,WeatherCatV1.21B27,2013-09-30 08:51:00,
2013-09-30 04:56:00,53.3,51.9,30.03,WSW,250,0.0,0.0,95,0.00,,,0.00,WeatherCatV1.21B27,2013-09-30 08:56:00,
2013-09-30 05:01:00,53.3,51.9,30.04,WSW,250,0.0,0.0,95,0.00,,,0.00,WeatherCatV1.21B27,2013-09-30 09:01:00,
2013-09-30 05:06:00,53.3,51.9,30.04,WSW,250,0.0,0.0,95,0.00,,,0.00,WeatherCatV1.21B27,2013-09-30 09:06:00,
2013-09-30 05:11:00,53.3,51.9,30.03,WSW,250,0.0,0.0,95,0.00,,,0.00,WeatherCatV1.21B27,2013-09-30 09:11:00,
2013-09-30 05:16:00,53.3,51.9,30.03,WSW,250,0.0,0.0,95,0.00,,,0.00,WeatherCatV1.21B27,2013-09-30 09:16:00,
2013-09-30 05:21:00,53.3,51.9,30.04,WSW,250,0.0,0.0,95,0.00,,,0.00,WeatherCatV1.21B27,2013-09-30 09:21:00,
2013-09-30 05:26:00,53.3,51.9,30.04,WSW,250,0.0,0.0,95,0.00,,,0.00,WeatherCatV1.21B27,2013-09-30 09:26:00,
2013-09-30 05:31:00,53.3,51.9,30.03,WSW,250,0.0,0.0,95,0.00,,,0.00,WeatherCatV1.21B27,2013-09-30 09:31:00,
2013-09-30 05:36:00,53.3,51.9,30.03,WSW,250,0.0,0.0,95,0.00,,,0.00,WeatherCatV1.21B27,2013-09-30 09:36:00,
2013-09-30 05:41:00,53.3,51.9,30.03,WSW,250,0.0,0.0,95,0.00,,,0.00,WeatherCatV1.21B27,2013-09-30 09:41:00,
2013-09-30 05:46:00,53.2,51.8,30.04,WSW,250,0.0,0.0,95,0.00,,,0.00,WeatherCatV1.21B27,2013-09-30 09:46:00,
2013-09-30 05:51:00,53.2,51.8,30.04,WSW,250,0.0,0.0,95,0.00,,,0.00,WeatherCatV1.21B27,2013-09-30 09:51:00,
2013-09-30 05:56:00,53.2,51.8,30.04,WSW,250,0.0,0.0,95,0.00,,,0.00,WeatherCatV1.21B27,2013-09-30 09:56:00,
2013-09-30 06:01:00,53.2,51.5,30.03,WSW,250,0.0,0.0,94,0.00,,,0.00,WeatherCatV1.21B27,2013-09-30 10:01:00,
2013-09-30 06:06:00,53.2,51.5,30.03,WSW,250,0.0,0.0,94,0.00,,,0.00,WeatherCatV1.21B27,2013-09-30 10:06:00,
2013-09-30 06:11:00,53.1,51.4,30.03,WSW,250,0.0,0.0,94,0.00,,,0.00,WeatherCatV1.21B27,2013-09-30 10:11:00,
2013-09-30 06:16:00,53.1,51.4,30.04,WSW,250,0.0,0.0,94,0.00,,,0.00,WeatherCatV1.21B27,2013-09-30 10:16:00,
2013-09-30 06:21:00,53.1,51.4,30.04,WSW,250,0.0,0.0,94,0.00,,,0.00,WeatherCatV1.21B27,2013-09-30 10:21:00,
2013-09-30 06:26:00,53.1,51.4,30.04,WSW,250,0.0,0.0,94,0.00,,,0.00,WeatherCatV1.21B27,2013-09-30 10:26:00,
2013-09-30 06:31:00,53.0,51.3,30.04,WSW,250,0.0,0.0,94,0.00,,,0.00,WeatherCatV1.21B27,2013-09-30 10:31:00,
2013-09-30 06:36:00,53.0,51.3,30.04,WSW,250,0.0,0.0,94,0.00,,,0.00,WeatherCatV1.21B27,2013-09-30 10:36:00,
2013-09-30 06:41:00,53.0,51.3,30.04,WSW,250,0.0,0.0,94,0.00,,,0.00,WeatherCatV1.21B27,2013-09-30 10:41:00,
2013-09-30 06:46:00,53.0,51.3,30.04,WSW,250,0.0,0.0,94,0.00,,,0.00,WeatherCatV1.21B27,2013-09-30 10:46:00,
2013-09-30 06:51:00,53.0,51.3,30.04,WSW,250,0.0,0.0,94,0.00,,,0.00,WeatherCatV1.21B27,2013-09-30 10:51:00,
2013-09-30 06:56:00,53.0,51.3,30.04,WSW,250,0.0,0.0,94,0.00,,,0.00,WeatherCatV1.21B27,2013-09-30 10:56:00,
2013-09-30 07:01:00,53.0,51.6,30.04,WSW,250,0.0,0.0,95,0.00,,,0.00,WeatherCatV1.21B27,2013-09-30 11:01:00,
2013-09-30 07:06:00,53.0,51.6,30.04,WSW,250,0.0,0.0,95,0.00,,,0.00,WeatherCatV1.21B27,2013-09-30 11:06:00,
2013-09-30 07:11:00,53.0,51.6,30.04,WSW,250,0.0,0.0,95,0.00,,,0.00,WeatherCatV1.21B27,2013-09-30 11:11:00,
2013-09-30 07:16:00,53.0,51.3,30.03,WSW,250,0.0,0.0,94,0.00,,,0.00,WeatherCatV1.21B27,2013-09-30 11:16:00,
2013-09-30 07:21:00,53.0,51.6,30.03,WSW,250,0.0,0.0,95,0.00,,,0.00,WeatherCatV1.21B27,2013-09-30 11:21:00,
2013-09-30 07:26:00,53.0,51.6,30.04,WSW,250,0.0,0.0,95,0.00,,,0.00,WeatherCatV1.21B27,2013-09-30 11:26:00,
2013-09-30 07:31:00,53.0,51.6,30.04,WSW,250,0.0,0.0,95,0.00,,,0.00,WeatherCatV1.21B27,2013-09-30 11:31:00,
2013-09-30 07:36:00,52.9,51.2,30.04,WSW,250,0.0,1.0,94,0.00,,,0.00,WeatherCatV1.21B27,2013-09-30 11:36:00,
2013-09-30 07:41:00,52.8,51.1,30.05,WSW,250,0.0,0.0,94,0.00,,,0.00,WeatherCatV1.21B27,2013-09-30 11:41:00,
2013-09-30 07:46:00,52.9,51.2,30.04,WSW,250,0.0,0.0,94,0.00,,,0.00,WeatherCatV1.21B27,2013-09-30 11:46:00,
2013-09-30 07:51:00,52.8,51.1,30.04,WSW,250,0.0,0.0,94,0.00,,,0.00,WeatherCatV1.21B27,2013-09-30 11:51:00,
2013-09-30 07:56:00,52.9,51.2,30.04,WSW,250,0.0,0.0,94,0.00,,,0.00,WeatherCatV1.21B27,2013-09-30 11:56:00,
2013-09-30 08:01:00,52.9,51.2,30.04,WSW,250,0.0,0.0,94,0.00,,,0.00,WeatherCatV1.21B27,2013-09-30 12:01:00,
2013-09-30 08:06:00,53.0,51.3,30.04,WSW,253,0.0,1.0,94,0.00,,,0.00,WeatherCatV1.21B27,2013-09-30 12:06:00,
2013-09-30 08:11:00,53.0,51.0,30.04,WSW,253,0.0,0.0,93,0.00,,,0.00,WeatherCatV1.21B27,2013-09-30 12:11:00,
2013-09-30 08:16:00,53.0,51.0,30.04,South,182,0.0,0.0,93,0.00,,,0.00,WeatherCatV1.21B27,2013-09-30 12:16:00,
2013-09-30 08:21:00,53.0,50.7,30.05,South,182,0.0,0.0,92,0.00,,,0.00,WeatherCatV1.21B27,2013-09-30 12:21:00,
2013-09-30 08:26:00,53.2,50.9,30.04,South,182,0.0,0.0,92,0.00,,,0.00,WeatherCatV1.21B27,2013-09-30 12:26:00,
2013-09-30 08:31:00,53.5,51.2,30.05,South,182,0.0,0.0,92,0.00,,,0.00,WeatherCatV1.21B27,2013-09-30 12:31:00,
2013-09-30 08:36:00,53.8,51.5,30.04,South,182,0.0,0.0,92,0.00,,,0.00,WeatherCatV1.21B27,2013-09-30 12:36:00,
2013-09-30 08:41:00,54.0,51.4,30.04,South,182,0.0,0.0,91,0.00,,,0.00,WeatherCatV1.21B27,2013-09-30 12:41:00,
2013-09-30 08:46:00,54.2,51.3,30.03,South,182,0.0,0.0,90,0.00,,,0.00,WeatherCatV1.21B27,2013-09-30 12:46:00,
2013-09-30 08:51:00,54.5,51.6,30.03,South,182,0.0,1.0,90,0.00,,,0.00,WeatherCatV1.21B27,2013-09-30 12:51:00,
2013-09-30 08:56:00,54.6,51.4,30.03,South,182,0.0,0.0,89,0.00,,,0.00,WeatherCatV1.21B27,2013-09-30 12:56:00,
2013-09-30 09:01:00,55.1,51.9,30.02,SW,219,0.0,2.0,89,0.00,,,0.00,WeatherCatV1.21B27,2013-09-30 13:01:00,
2013-09-30 09:06:00,55.7,52.2,30.02,WNW,298,0.0,0.0,88,0.00,,,0.00,WeatherCatV1.21B27,2013-09-30 13:06:00,
2013-09-30 09:11:00,56.2,52.1,30.03,NNE,21,0.0,0.0,86,0.00,,,0.00,WeatherCatV1.21B27,2013-09-30 13:11:00,
2013-09-30 09:16:00,56.6,52.1,30.02,WNW,302,0.0,2.0,85,0.00,,,0.00,WeatherCatV1.21B27,2013-09-30 13:16:00,
2013-09-30 09:21:00,57.0,52.5,30.02,WNW,302,0.0,0.0,85,0.00,,,0.00,WeatherCatV1.21B27,2013-09-30 13:21:00,
2013-09-30 09:26:00,57.6,52.5,30.02,NW,311,0.0,0.0,83,0.00,,,0.00,WeatherCatV1.21B27,2013-09-30 13:26:00,
2013-09-30 09:31:00,58.4,52.9,30.02,NW,311,0.0,0.0,82,0.00,,,0.00,WeatherCatV1.21B27,2013-09-30 13:31:00,
2013-09-30 09:36:00,58.9,52.7,30.02,NW,311,0.0,0.0,80,0.00,,,0.00,WeatherCatV1.21B27,2013-09-30 13:36:00,
2013-09-30 09:41:00,59.1,52.6,30.02,NW,311,0.0,0.0,79,0.00,,,0.00,WeatherCatV1.21B27,2013-09-30 13:41:00,
2013-09-30 09:46:00,58.9,52.7,30.02,NW,311,0.0,0.0,80,0.00,,,0.00,WeatherCatV1.21B27,2013-09-30 13:46:00,
2013-09-30 09:51:00,58.9,53.1,30.02,NW,311,0.0,0.0,81,0.00,,,0.00,WeatherCatV1.21B27,2013-09-30 13:51:00,
2013-09-30 09:56:00,59.0,52.8,30.02,NW,311,0.0,0.0,80,0.00,,,0.00,WeatherCatV1.21B27,2013-09-30 13:56:00,
2013-09-30 10:01:00,58.8,52.6,30.01,West,281,0.0,2.0,80,0.00,,,0.00,WeatherCatV1.21B27,2013-09-30 14:01:00,
2013-09-30 10:06:00,58.8,52.6,30.02,West,281,0.0,0.0,80,0.00,,,0.00,WeatherCatV1.21B27,2013-09-30 14:06:00,
2013-09-30 10:11:00,58.7,52.5,30.01,West,265,0.0,2.0,80,0.00,,,0.00,WeatherCatV1.21B27,2013-09-30 14:11:00,
2013-09-30 10:16:00,58.6,52.5,30.01,WSW,238,2.0,2.0,80,0.00,,,0.00,WeatherCatV1.21B27,2013-09-30 14:16:00,
2013-09-30 10:21:00,58.7,52.5,30.01,SW,234,0.0,0.0,80,0.00,,,0.00,WeatherCatV1.21B27,2013-09-30 14:21:00,
2013-09-30 10:26:00,58.6,52.5,30.01,WSW,249,1.0,1.0,80,0.00,,,0.00,WeatherCatV1.21B27,2013-09-30 14:26:00,
2013-09-30 10:31:00,58.7,52.5,30.01,SSW,192,0.0,3.0,80,0.00,,,0.00,WeatherCatV1.21B27,2013-09-30 14:31:00,
2013-09-30 10:36:00,58.9,52.0,30.01,WNW,302,0.0,0.0,78,0.00,,,0.00,WeatherCatV1.21B27,2013-09-30 14:36:00,
2013-09-30 10:41:00,59.3,52.4,30.01,WNW,302,0.0,0.0,78,0.00,,,0.00,WeatherCatV1.21B27,2013-09-30 14:41:00,
2013-09-30 10:46:00,59.8,52.2,30.01,NNW,335,0.0,1.0,76,0.00,,,0.00,WeatherCatV1.21B27,2013-09-30 14:46:00,
2013-09-30 10:51:00,60.2,53.0,30.01,NNW,343,0.0,0.0,77,0.00,,,0.00,WeatherCatV1.21B27,2013-09-30 14:51:00,
2013-09-30 10:56:00,60.4,52.1,30.01,NNW,344,0.0,1.0,74,0.00,,,0.00,WeatherCatV1.21B27,2013-09-30 14:56:00,
2013-09-30 11:01:00,60.6,52.6,30.01,West,261,0.0,1.0,75,0.00,,,0.00,WeatherCatV1.21B27,2013-09-30 15:01:00,
2013-09-30 11:06:00,60.5,52.5,30.01,WSW,254,1.0,1.0,75,0.00,,,0.00,WeatherCatV1.21B27,2013-09-30 15:06:00,
2013-09-30 11:11:00,60.5,51.8,30.00,ENE,77,0.0,1.0,73,0.00,,,0.00,WeatherCatV1.21B27,2013-09-30 15:11:00,
2013-09-30 11:16:00,60.6,52.3,30.00,SSW,198,0.0,0.0,74,0.00,,,0.00,WeatherCatV1.21B27,2013-09-30 15:16:00,
2013-09-30 11:21:00,60.6,52.3,30.00,NE,55,1.0,2.0,74,0.00,,,0.00,WeatherCatV1.21B27,2013-09-30 15:21:00,
2013-09-30 11:26:00,60.6,51.9,30.00,WNW,292,1.0,1.0,73,0.00,,,0.00,WeatherCatV1.21B27,2013-09-30 15:26:00,
2013-09-30 11:31:00,60.9,52.2,30.00,West,261,2.0,4.0,73,0.00,,,0.00,WeatherCatV1.21B27,2013-09-30 15:31:00,
2013-09-30 11:36:00,61.2,51.7,30.00,North,7,0.0,0.0,71,0.00,,,0.00,WeatherCatV1.21B27,2013-09-30 15:36:00,
2013-09-30 11:41:00,61.4,50.3,29.99,North,357,1.0,1.0,67,0.00,,,0.00,WeatherCatV1.21B27,2013-09-30 15:41:00,
2013-09-30 11:46:00,61.7,50.2,29.99,NNE,26,0.0,2.0,66,0.00,,,0.00,WeatherCatV1.21B27,2013-09-30 15:46:00,
2013-09-30 11:51:00,62.0,49.3,29.99,NE,44,1.0,5.0,63,0.00,,,0.00,WeatherCatV1.21B27,2013-09-30 15:51:00,
2013-09-30 11:56:00,62.0,47.5,29.99,ENE,78,0.0,1.0,59,0.00,,,0.00,WeatherCatV1.21B27,2013-09-30 15:56:00,
2013-09-30 12:01:00,62.1,47.6,29.99,NNE,19,1.0,3.0,59,0.00,,,0.00,WeatherCatV1.21B27,2013-09-30 16:01:00,
2013-09-30 12:06:00,62.2,46.3,29.99,ENE,65,1.0,3.0,56,0.00,,,0.00,WeatherCatV1.21B27,2013-09-30 16:06:00,
2013-09-30 12:11:00,62.2,48.1,29.99,ENE,69,0.0,2.0,60,0.00,,,0.00,WeatherCatV1.21B27,2013-09-30 16:11:00,
2013-09-30 12:16:00,62.2,47.2,29.99,North,2,0.0,3.0,58,0.00,,,0.00,WeatherCatV1.21B27,2013-09-30 16:16:00,
2013-09-30 12:21:00,62.3,49.1,29.99,North,2,1.0,2.0,62,0.00,,,0.00,WeatherCatV1.21B27,2013-09-30 16:21:00,
2013-09-30 12:26:00,62.3,49.5,29.99,ENE,65,0.0,2.0,63,0.00,,,0.00,WeatherCatV1.21B27,2013-09-30 16:26:00,
2013-09-30 12:31:00,62.5,51.4,29.98,ENE,69,1.0,3.0,67,0.00,,,0.00,WeatherCatV1.21B27,2013-09-30 16:31:00,
2013-09-30 12:36:00,62.4,51.3,29.99,NNE,33,0.0,2.0,67,0.00,,,0.00,WeatherCatV1.21B27,2013-09-30 16:36:00,
2013-09-30 12:41:00,62.2,50.7,29.98,NNE,14,1.0,4.0,66,0.00,,,0.00,WeatherCatV1.21B27,2013-09-30 16:41:00,
2013-09-30 12:46:00,61.9,50.8,29.98,North,7,3.0,5.0,67,0.00,,,0.00,WeatherCatV1.21B27,2013-09-30 16:46:00,
2013-09-30 12:51:00,61.8,51.5,29.98,NNE,30,0.0,1.0,69,0.00,,,0.00,WeatherCatV1.21B27,2013-09-30 16:51:00,
2013-09-30 12:56:00,61.7,51.0,29.98,NE,41,3.0,3.0,68,0.00,,,0.00,WeatherCatV1.21B27,2013-09-30 16:56:00,
2013-09-30 13:01:00,61.7,51.4,29.98,ENE,59,0.0,0.0,69,0.00,,,0.00,WeatherCatV1.21B27,2013-09-30 17:01:00,
2013-09-30 13:06:00,61.7,51.4,29.98,ESE,107,0.0,2.0,69,0.00,,,0.00,WeatherCatV1.21B27,2013-09-30 17:06:00,
2013-09-30 13:11:00,61.8,50.7,29.97,East,92,1.0,1.0,67,0.00,,,0.00,WeatherCatV1.21B27,2013-09-30 17:11:00,
2013-09-30 13:16:00,61.8,51.1,29.97,NNE,13,0.0,3.0,68,0.00,,,0.00,WeatherCatV1.21B27,2013-09-30 17:16:00,
2013-09-30 13:21:00,61.9,51.6,29.97,North,11,4.0,5.0,69,0.00,,,0.00,WeatherCatV1.21B27,2013-09-30 17:21:00,
2013-09-30 13:26:00,61.8,51.9,29.97,East,90,0.0,4.0,70,0.00,,,0.00,WeatherCatV1.21B27,2013-09-30 17:26:00,
2013-09-30 13:31:00,61.7,52.2,29.97,North,7,2.0,3.0,71,0.00,,,0.00,WeatherCatV1.21B27,2013-09-30 17:31:00,
2013-09-30 13:36:00,61.8,52.3,29.97,NNE,15,1.0,3.0,71,0.00,,,0.00,WeatherCatV1.21B27,2013-09-30 17:36:00,
2013-09-30 13:41:00,61.8,51.9,29.97,ENE,69,0.0,3.0,70,0.00,,,0.00,WeatherCatV1.21B27,2013-09-30 17:41:00,
2013-09-30 13:46:00,61.6,51.7,29.97,ENE,69,2.0,2.0,70,0.00,,,0.00,WeatherCatV1.21B27,2013-09-30 17:46:00,
2013-09-30 13:51:00,61.5,50.4,29.97,ENE,67,0.0,0.0,67,0.00,,,0.00,WeatherCatV1.21B27,2013-09-30 17:51:00,
2013-09-30 13:56:00,61.6,50.1,29.97,ENE,67,0.0,3.0,66,0.00,,,0.00,WeatherCatV1.21B27,2013-09-30 17:56:00,
2013-09-30 14:01:00,61.6,50.5,29.97,NNE,26,2.0,2.0,67,0.00,,,0.00,WeatherCatV1.21B27,2013-09-30 18:01:00,
2013-09-30 14:06:00,61.6,50.5,29.97,NE,46,0.0,2.0,67,0.00,,,0.00,WeatherCatV1.21B27,2013-09-30 18:06:00,
2013-09-30 14:11:00,61.8,50.3,29.97,ENE,78,0.0,2.0,66,0.00,,,0.00,WeatherCatV1.21B27,2013-09-30 18:11:00,
2013-09-30 14:16:00,62.0,50.1,29.97,NNE,16,0.0,4.0,65,0.00,,,0.00,WeatherCatV1.21B27,2013-09-30 18:16:00,
2013-09-30 14:21:00,62.2,49.4,29.97,North,7,2.0,2.0,63,0.00,,,0.00,WeatherCatV1.21B27,2013-09-30 18:21:00,
2013-09-30 14:26:00,62.3,49.1,29.97,NNE,16,0.0,4.0,62,0.00,,,0.00,WeatherCatV1.21B27,2013-09-30 18:26:00,
2013-09-30 14:31:00,62.3,49.1,29.96,NNE,16,0.0,2.0,62,0.00,,,0.00,WeatherCatV1.21B27,2013-09-30 18:31:00,
2013-09-30 14:36:00,62.3,49.5,29.96,North,349,0.0,2.0,63,0.00,,,0.00,WeatherCatV1.21B27,2013-09-30 18:36:00,
2013-09-30 14:41:00,62.4,49.2,29.96,North,7,0.0,1.0,62,0.00,,,0.00,WeatherCatV1.21B27,2013-09-30 18:41:00,
2013-09-30 14:46:00,62.4,49.2,29.95,NNE,26,0.0,3.0,62,0.00,,,0.00,WeatherCatV1.21B27,2013-09-30 18:46:00,
2013-09-30 14:51:00,62.7,49.5,29.95,NNE,21,0.0,2.0,62,0.00,,,0.00,WeatherCatV1.21B27,2013-09-30 18:51:00,
2013-09-30 14:56:00,62.8,49.6,29.95,North,357,3.0,3.0,62,0.00,,,0.00,WeatherCatV1.21B27,2013-09-30 18:56:00,
2013-09-30 15:01:00,63.3,50.5,29.95,North,7,0.0,3.0,63,0.00,,,0.00,WeatherCatV1.21B27,2013-09-30 19:01:00,
2013-09-30 15:06:00,63.4,50.2,29.95,NE,51,0.0,1.0,62,0.00,,,0.00,WeatherCatV1.21B27,2013-09-30 19:06:00,
2013-09-30 15:11:00,63.3,49.6,29.95,NE,55,2.0,2.0,61,0.00,,,0.00,WeatherCatV1.21B27,2013-09-30 19:11:00,
2013-09-30 15:16:00,63.2,49.5,29.94,NE,53,0.0,1.0,61,0.00,,,0.00,WeatherCatV1.21B27,2013-09-30 19:16:00,
2013-09-30 15:21:00,63.4,50.2,29.94,NE,38,1.0,2.0,62,0.00,,,0.00,WeatherCatV1.21B27,2013-09-30 19:21:00,
2013-09-30 15:26:00,63.9,50.6,29.94,NNE,15,0.0,0.0,62,0.00,,,0.00,WeatherCatV1.21B27,2013-09-30 19:26:00,
2013-09-30 15:31:00,64.3,50.1,29.94,NNE,14,0.0,5.0,60,0.00,,,0.00,WeatherCatV1.21B27,2013-09-30 19:31:00,
2013-09-30 15:36:00,64.3,49.7,29.94,NE,48,0.0,1.0,59,0.00,,,0.00,WeatherCatV1.21B27,2013-09-30 19:36:00,
2013-09-30 15:41:00,64.2,50.5,29.93,NE,44,1.0,1.0,61,0.00,,,0.00,WeatherCatV1.21B27,2013-09-30 19:41:00,
2013-09-30 15:46:00,64.6,50.8,29.93,NNE,28,0.0,1.0,61,0.00,,,0.00,WeatherCatV1.21B27,2013-09-30 19:46:00,
2013-09-30 15:51:00,65.3,51.5,29.93,NNE,13,0.0,2.0,61,0.00,,,0.00,WeatherCatV1.21B27,2013-09-30 19:51:00,
2013-09-30 15:56:00,65.4,51.6,29.93,NNE,22,0.0,2.0,61,0.00,,,0.00,WeatherCatV1.21B27,2013-09-30 19:56:00,
2013-09-30 16:01:00,65.5,52.1,29.93,NNE,22,0.0,1.0,62,0.00,,,0.00,WeatherCatV1.21B27,2013-09-30 20:01:00,
2013-09-30 16:06:00,65.6,51.8,29.93,NE,44,1.0,3.0,61,0.00,,,0.00,WeatherCatV1.21B27,2013-09-30 20:06:00,
2013-09-30 16:11:00,65.3,51.9,29.93,NE,41,0.0,1.0,62,0.00,,,0.00,WeatherCatV1.21B27,2013-09-30 20:11:00,
2013-09-30 16:16:00,65.6,52.2,29.93,NNE,21,0.0,3.0,62,0.00,,,0.00,WeatherCatV1.21B27,2013-09-30 20:16:00,
2013-09-30 16:21:00,65.6,51.8,29.93,NNE,24,0.0,2.0,61,0.00,,,0.00,WeatherCatV1.21B27,2013-09-30 20:21:00,
2013-09-30 16:26:00,65.0,51.7,29.93,North,7,0.0,4.0,62,0.00,,,0.00,WeatherCatV1.21B27,2013-09-30 20:26:00,
2013-09-30 16:31:00,64.6,51.7,29.92,North,7,0.0,0.0,63,0.00,,,0.00,WeatherCatV1.21B27,2013-09-30 20:31:00,
2013-09-30 16:36:00,64.2,52.2,29.92,NE,45,1.0,1.0,65,0.00,,,0.00,WeatherCatV1.21B27,2013-09-30 20:36:00,
2013-09-30 16:41:00,64.5,52.5,29.92,North,7,0.0,0.0,65,0.00,,,0.00,WeatherCatV1.21B27,2013-09-30 20:41:00,
2013-09-30 16:46:00,65.0,52.1,29.92,North,7,0.0,3.0,63,0.00,,,0.00,WeatherCatV1.21B27,2013-09-30 20:46:00,
2013-09-30 16:51:00,65.4,52.5,29.92,North,7,0.0,0.0,63,0.00,,,0.00,WeatherCatV1.21B27,2013-09-30 20:51:00,
2013-09-30 16:56:00,65.2,52.3,29.92,North,7,0.0,1.0,63,0.00,,,0.00,WeatherCatV1.21B27,2013-09-30 20:56:00,
2013-09-30 17:01:00,65.1,52.2,29.93,NE,50,0.0,2.0,63,0.00,,,0.00,WeatherCatV1.21B27,2013-09-30 21:01:00,
2013-09-30 17:06:00,65.0,52.1,29.93,NE,50,0.0,0.0,63,0.00,,,0.00,WeatherCatV1.21B27,2013-09-30 21:06:00,
2013-09-30 17:11:00,65.1,52.2,29.93,NE,40,0.0,1.0,63,0.00,,,0.00,WeatherCatV1.21B27,2013-09-30 21:11:00,
2013-09-30 17:16:00,65.1,51.8,29.93,NE,36,0.0,0.0,62,0.00,,,0.00,WeatherCatV1.21B27,2013-09-30 21:16:00,
2013-09-30 17:21:00,65.2,52.3,29.93,NE,36,0.0,2.0,63,0.00,,,0.00,WeatherCatV1.21B27,2013-09-30 21:21:00,
2013-09-30 17:26:00,64.9,52.0,29.93,NE,36,0.0,0.0,63,0.00,,,0.00,WeatherCatV1.21B27,2013-09-30 21:26:00,
2013-09-30 17:31:00,64.3,51.9,29.93,NE,36,0.0,0.0,64,0.00,,,0.00,WeatherCatV1.21B27,2013-09-30 21:31:00,
2013-09-30 17:36:00,63.8,51.8,29.93,NE,36,0.0,0.0,65,0.00,,,0.00,WeatherCatV1.21B27,2013-09-30 21:36:00,
2013-09-30 17:41:00,63.2,51.7,29.93,NE,36,0.0,1.0,66,0.00,,,0.00,WeatherCatV1.21B27,2013-09-30 21:41:00,
2013-09-30 17:46:00,62.7,51.6,29.93,NE,36,0.0,0.0,67,0.00,,,0.00,WeatherCatV1.21B27,2013-09-30 21:46:00,
2013-09-30 17:51:00,62.3,52.0,29.93,NE,36,0.0,0.0,69,0.00,,,0.00,WeatherCatV1.21B27,2013-09-30 21:51:00,
2013-09-30 17:56:00,61.8,51.5,29.93,NE,36,0.0,0.0,69,0.00,,,0.00,WeatherCatV1.21B27,2013-09-30 21:56:00,
2013-09-30 18:01:00,61.3,51.4,29.93,NE,36,0.0,0.0,70,0.00,,,0.00,WeatherCatV1.21B27,2013-09-30 22:01:00,
2013-09-30 18:06:00,60.9,51.4,29.93,NE,36,0.0,0.0,71,0.00,,,0.00,WeatherCatV1.21B27,2013-09-30 22:06:00,
2013-09-30 18:11:00,60.6,51.5,29.93,NE,36,0.0,0.0,72,0.00,,,0.00,WeatherCatV1.21B27,2013-09-30 22:11:00,
2013-09-30 18:16:00,60.2,51.5,29.93,NE,36,0.0,0.0,73,0.00,,,0.00,WeatherCatV1.21B27,2013-09-30 22:16:00,
2013-09-30 18:21:00,59.7,51.8,29.93,NE,36,0.0,0.0,75,0.00,,,0.00,WeatherCatV1.21B27,2013-09-30 22:21:00,
2013-09-30 18:26:00,59.1,51.5,29.93,NE,36,0.0,0.0,76,0.00,,,0.00,WeatherCatV1.21B27,2013-09-30 22:26:00,
2013-09-30 18:31:00,58.6,51.4,29.93,NE,36,0.0,0.0,77,0.00,,,0.00,WeatherCatV1.21B27,2013-09-30 22:31:00,
2013-09-30 18:36:00,58.1,50.9,29.93,NE,36,0.0,0.0,77,0.00,,,0.00,WeatherCatV1.21B27,2013-09-30 22:36:00,
2013-09-30 18:41:00,57.7,51.2,29.93,NE,36,0.0,0.0,79,0.00,,,0.00,WeatherCatV1.21B27,2013-09-30 22:41:00,
2013-09-30 18:46:00,57.3,50.8,29.93,NE,36,0.0,0.0,79,0.00,,,0.00,WeatherCatV1.21B27,2013-09-30 22:46:00,
2013-09-30 18:51:00,56.8,50.7,29.93,NE,36,0.0,0.0,80,0.00,,,0.00,WeatherCatV1.21B27,2013-09-30 22:51:00,
2013-09-30 18:56:00,56.5,50.7,29.93,NE,36,0.0,0.0,81,0.00,,,0.00,WeatherCatV1.21B27,2013-09-30 22:56:00,
2013-09-30 19:01:00,56.2,50.8,29.93,NE,36,0.0,0.0,82,0.00,,,0.00,WeatherCatV1.21B27,2013-09-30 23:01:00,
2013-09-30 19:06:00,55.9,50.5,29.93,NE,36,0.0,0.0,82,0.00,,,0.00,WeatherCatV1.21B27,2013-09-30 23:06:00,
2013-09-30 19:11:00,55.7,50.6,29.93,NE,36,0.0,0.0,83,0.00,,,0.00,WeatherCatV1.21B27,2013-09-30 23:11:00,
2013-09-30 19:16:00,55.4,50.6,29.93,NE,36,0.0,0.0,84,0.00,,,0.00,WeatherCatV1.21B27,2013-09-30 23:16:00,
2013-09-30 19:21:00,55.1,50.7,29.93,NE,36,0.0,0.0,85,0.00,,,0.00,WeatherCatV1.21B27,2013-09-30 23:21:00,
2013-09-30 19:26:00,54.8,50.4,29.93,NE,36,0.0,0.0,85,0.00,,,0.00,WeatherCatV1.21B27,2013-09-30 23:26:00,
2013-09-30 19:31:00,54.5,50.4,29.93,NE,36,0.0,0.0,86,0.00,,,0.00,WeatherCatV1.21B27,2013-09-30 23:31:00,
2013-09-30 19:36:00,54.3,50.2,29.93,NE,36,0.0,0.0,86,0.00,,,0.00,WeatherCatV1.21B27,2013-09-30 23:36:00,
2013-09-30 19:41:00,54.1,50.3,29.92,NE,36,0.0,0.0,87,0.00,,,0.00,WeatherCatV1.21B27,2013-09-30 23:41:00,
2013-09-30 19:46:00,53.8,50.0,29.92,NE,36,0.0,0.0,87,0.00,,,0.00,WeatherCatV1.21B27,2013-09-30 23:46:00,
2013-09-30 19:51:00,53.6,50.1,29.92,NE,36,0.0,0.0,88,0.00,,,0.00,WeatherCatV1.21B27,2013-09-30 23:51:00,
2013-09-30 19:56:00,53.3,49.8,29.92,NE,36,0.0,0.0,88,0.00,,,0.00,WeatherCatV1.21B27,2013-09-30 23:56:00,
2013-09-30 20:01:00,53.1,49.6,29.92,NE,36,0.0,0.0,88,0.00,,,0.00,WeatherCatV1.21B27,2013-10-01 00:01:00,
2013-09-30 20:06:00,52.9,49.8,29.92,NE,36,0.0,0.0,89,0.00,,,0.00,WeatherCatV1.21B27,2013-10-01 00:06:00,
2013-09-30 20:11:00,52.8,49.7,29.92,NE,36,0.0,0.0,89,0.00,,,0.00,WeatherCatV1.21B27,2013-10-01 00:11:00,
2013-09-30 20:16:00,52.6,49.5,29.92,NE,36,0.0,0.0,89,0.00,,,0.00,WeatherCatV1.21B27,2013-10-01 00:16:00,
2013-09-30 20:21:00,52.4,49.5,29.92,NE,36,0.0,0.0,90,0.00,,,0.00,WeatherCatV1.21B27,2013-10-01 00:21:00,
2013-09-30 20:26:00,52.2,49.3,29.92,NE,36,0.0,0.0,90,0.00,,,0.00,WeatherCatV1.21B27,2013-10-01 00:26:00,
2013-09-30 20:31:00,52.0,49.5,29.92,NE,36,0.0,0.0,91,0.00,,,0.00,WeatherCatV1.21B27,2013-10-01 00:31:00,
2013-09-30 20:36:00,51.9,49.3,29.92,NE,36,0.0,0.0,91,0.00,,,0.00,WeatherCatV1.21B27,2013-10-01 00:36:00,
2013-09-30 20:41:00,51.7,49.2,29.92,NE,36,0.0,0.0,91,0.00,,,0.00,WeatherCatV1.21B27,2013-10-01 00:41:00,
2013-09-30 20:46:00,51.5,49.0,29.93,NE,36,0.0,0.0,91,0.00,,,0.00,WeatherCatV1.21B27,2013-10-01 00:46:00,
2013-09-30 20:51:00,51.4,48.9,29.93,NE,36,0.0,0.0,91,0.00,,,0.00,WeatherCatV1.21B27,2013-10-01 00:51:00,
2013-09-30 20:56:00,51.2,48.7,29.93,NE,36,0.0,0.0,91,0.00,,,0.00,WeatherCatV1.21B27,2013-10-01 00:56:00,
2013-09-30 21:01:00,51.1,48.6,29.92,NE,36,0.0,0.0,91,0.00,,,0.00,WeatherCatV1.21B27,2013-10-01 01:01:00,
2013-09-30 21:06:00,51.0,48.8,29.92,NE,36,0.0,0.0,92,0.00,,,0.00,WeatherCatV1.21B27,2013-10-01 01:06:00,
2013-09-30 21:11:00,50.9,48.7,29.92,NE,36,0.0,0.0,92,0.00,,,0.00,WeatherCatV1.21B27,2013-10-01 01:11:00,
2013-09-30 21:16:00,50.8,48.6,29.92,NE,36,0.0,0.0,92,0.00,,,0.00,WeatherCatV1.21B27,2013-10-01 01:16:00,
2013-09-30 21:21:00,50.6,48.4,29.92,NE,36,0.0,0.0,92,0.00,,,0.00,WeatherCatV1.21B27,2013-10-01 01:21:00,
2013-09-30 21:26:00,50.4,48.2,29.92,NE,36,0.0,0.0,92,0.00,,,0.00,WeatherCatV1.21B27,2013-10-01 01:26:00,
2013-09-30 21:31:00,50.2,48.2,29.92,NE,36,0.0,0.0,93,0.00,,,0.00,WeatherCatV1.21B27,2013-10-01 01:31:00,
2013-09-30 21:36:00,50.2,48.2,29.92,NE,36,0.0,0.0,93,0.00,,,0.00,WeatherCatV1.21B27,2013-10-01 01:36:00,
2013-09-30 21:41:00,50.1,48.2,29.92,NE,36,0.0,0.0,93,0.00,,,0.00,WeatherCatV1.21B27,2013-10-01 01:41:00,
2013-09-30 21:46:00,49.9,48.0,29.92,NE,36,0.0,0.0,93,0.00,,,0.00,WeatherCatV1.21B27,2013-10-01 01:46:00,
2013-09-30 21:51:00,49.8,47.6,29.92,NE,36,0.0,0.0,92,0.00,,,0.00,WeatherCatV1.21B27,2013-10-01 01:51:00,
2013-09-30 21:56:00,49.7,47.5,29.92,NE,36,0.0,0.0,92,0.00,,,0.00,WeatherCatV1.21B27,2013-10-01 01:56:00,
2013-09-30 22:01:00,49.6,47.7,29.92,NE,36,0.0,0.0,93,0.00,,,0.00,WeatherCatV1.21B27,2013-10-01 02:01:00,
2013-09-30 22:06:00,49.4,47.2,29.92,NE,36,0.0,0.0,92,0.00,,,0.00,WeatherCatV1.21B27,2013-10-01 02:06:00,
2013-09-30 22:11:00,49.2,47.0,29.92,NE,36,0.0,0.0,92,0.00,,,0.00,WeatherCatV1.21B27,2013-10-01 02:11:00,
2013-09-30 22:16:00,49.0,47.1,29.92,NE,36,0.0,0.0,93,0.00,,,0.00,WeatherCatV1.21B27,2013-10-01 02:16:00,
2013-09-30 22:21:00,48.9,47.0,29.92,NE,36,0.0,0.0,93,0.00,,,0.00,WeatherCatV1.21B27,2013-10-01 02:21:00,
2013-09-30 22:26:00,48.8,46.9,29.92,NE,36,0.0,0.0,93,0.00,,,0.00,WeatherCatV1.21B27,2013-10-01 02:26:00,
2013-09-30 22:31:00,48.8,46.9,29.91,NE,36,0.0,0.0,93,0.00,,,0.00,WeatherCatV1.21B27,2013-10-01 02:31:00,
2013-09-30 22:36:00,48.7,46.8,29.91,NE,36,0.0,0.0,93,0.00,,,0.00,WeatherCatV1.21B27,2013-10-01 02:36:00,
2013-09-30 22:41:00,48.5,46.6,29.91,NE,36,0.0,0.0,93,0.00,,,0.00,WeatherCatV1.21B27,2013-10-01 02:41:00,
2013-09-30 22:46:00,48.4,46.5,29.91,NE,36,0.0,0.0,93,0.00,,,0.00,WeatherCatV1.21B27,2013-10-01 02:46:00,
2013-09-30 22:51:00,48.2,46.3,29.92,NE,36,0.0,0.0,93,0.00,,,0.00,WeatherCatV1.21B27,2013-10-01 02:51:00,
2013-09-30 22:56:00,48.0,46.1,29.92,NE,36,0.0,0.0,93,0.00,,,0.00,WeatherCatV1.21B27,2013-10-01 02:56:00,
2013-09-30 23:01:00,47.9,46.0,29.92,NE,36,0.0,0.0,93,0.00,,,0.00,WeatherCatV1.21B27,2013-10-01 03:01:00,
2013-09-30 23:06:00,47.8,45.9,29.92,NE,36,0.0,0.0,93,0.00,,,0.00,WeatherCatV1.21B27,2013-10-01 03:06:00,
2013-09-30 23:11:00,47.8,46.2,29.92,NE,36,0.0,0.0,94,0.00,,,0.00,WeatherCatV1.21B27,2013-10-01 03:11:00,
2013-09-30 23:16:00,47.6,46.0,29.92,NE,36,0.0,0.0,94,0.00,,,0.00,WeatherCatV1.21B27,2013-10-01 03:16:00,
2013-09-30 23:21:00,47.6,46.0,29.92,NE,36,0.0,0.0,94,0.00,,,0.00,WeatherCatV1.21B27,2013-10-01 03:21:00,
2013-09-30 23:26:00,47.5,45.9,29.92,NE,36,0.0,0.0,94,0.00,,,0.00,WeatherCatV1.21B27,2013-10-01 03:26:00,
2013-09-30 23:31:00,47.4,45.8,29.92,NE,36,0.0,0.0,94,0.00,,,0.00,WeatherCatV1.21B27,2013-10-01 03:31:00,
2013-09-30 23:36:00,47.4,45.8,29.92,NE,36,0.0,0.0,94,0.00,,,0.00,WeatherCatV1.21B27,2013-10-01 03:36:00,
2013-09-30 23:41:00,47.3,45.7,29.92,NE,36,0.0,0.0,94,0.00,,,0.00,WeatherCatV1.21B27,2013-10-01 03:41:00,
2013-09-30 23:46:00,47.2,45.6,29.91,NE,36,0.0,0.0,94,0.00,,,0.00,WeatherCatV1.21B27,2013-10-01 03:46:00,
2013-09-30 23:51:00,47.2,45.6,29.91,NE,36,0.0,0.0,94,0.00,,,0.00,WeatherCatV1.21B27,2013-10-01 03:51:00,
2013-09-30 23:56:00,47.1,45.5,29.91,NE,36,0.0,0.0,94,0.00,,,0.00,WeatherCatV1.21B27,2013-10-01 03:56:00,